^^
Your Local Weather - Clay, NY Station Historical Data
Daily Summary for May 27, 2017 Units:  English    Metric   Both
« Previous Day
Next Day »
Daily Weekly Monthly Yearly Custom
  High: Low: Average:
Temperature: 68.5 °F 53.0 °F 59.3 °F
Dew Point: 59.2 °F 50.4 °F 54.9 °F
Humidity: 94% 66% 86%
Wind Speed: 3.0mph 0.0mph 0.5mph
Wind Gust: 7.0mph - -
Wind- - SSW
Pressure: 29.89 in 29.81 in -
Precipitation: 0.11 in    
Historical Graphs
 
 
Tabular Data for May 27, 2017
Time Temperature Dew Point Pressure Wind Wind Speed Wind Gust Humidity Rainfall Rate (Hourly) solar
00:00 56.0 °F 53.7 °F 29.81 in Calm     92% 0.00 in 0 W/m2
00:06 56.0 °F 53.7 °F 29.81 in Calm     92% 0.00 in 0 W/m2
00:12 56.0 °F 53.7 °F 29.81 in Calm     92% 0.00 in 0 W/m2
00:18 56.0 °F 53.7 °F 29.81 in Calm     92% 0.00 in 0 W/m2
00:24 56.0 °F 54.0 °F 29.81 in Calm     93% 0.00 in 0 W/m2
00:30 56.0 °F 54.0 °F 29.81 in Calm     93% 0.00 in 0 W/m2
00:36 56.0 °F 54.0 °F 29.81 in Calm     93% 0.00 in 0 W/m2
00:42 55.9 °F 53.9 °F 29.81 in Calm     93% 0.00 in 0 W/m2
00:48 55.9 °F 53.9 °F 29.81 in Calm     93% 0.00 in 0 W/m2
00:54 55.8 °F 53.8 °F 29.81 in Calm     93% 0.00 in 0 W/m2
01:00 55.8 °F 53.8 °F 29.81 in Calm     93% 0.00 in 0 W/m2
01:06 55.8 °F 53.8 °F 29.82 in Calm     93% 0.04 in 0 W/m2
01:12 55.8 °F 53.8 °F 29.82 in Calm     93% 0.04 in 0 W/m2
01:18 55.8 °F 53.8 °F 29.82 in Calm     93% 0.05 in 0 W/m2
01:24 55.8 °F 53.8 °F 29.81 in Calm     93% 0.05 in 0 W/m2
01:30 55.8 °F 53.8 °F 29.81 in Calm     93% 0.04 in 0 W/m2
01:36 55.8 °F 53.8 °F 29.81 in Calm     93% 0.00 in 0 W/m2
01:42 55.7 °F 53.7 °F 29.81 in Calm     93% 0.00 in 0 W/m2
01:48 55.7 °F 53.7 °F 29.81 in Calm     93% 0.00 in 0 W/m2
01:54 55.7 °F 53.7 °F 29.81 in Calm     93% 0.00 in 0 W/m2
02:00 55.7 °F 53.7 °F 29.81 in Calm     93% 0.00 in 0 W/m2
02:06 55.7 °F 53.7 °F 29.81 in Calm     93% 0.00 in 0 W/m2
02:12 55.7 °F 53.7 °F 29.81 in Calm     93% 0.00 in 0 W/m2
02:18 55.7 °F 53.7 °F 29.81 in Calm     93% 0.00 in 0 W/m2
02:24 55.7 °F 53.7 °F 29.81 in Calm     93% 0.00 in 0 W/m2
02:30 55.7 °F 53.7 °F 29.81 in Calm     93% 0.00 in 0 W/m2
02:36 55.7 °F 53.7 °F 29.81 in Calm     93% 0.00 in 0 W/m2
02:42 55.8 °F 54.1 °F 29.81 in Calm     94% 0.00 in 0 W/m2
02:48 55.7 °F 54.0 °F 29.81 in Calm     94% 0.00 in 0 W/m2
02:54 55.8 °F 54.1 °F 29.82 in Calm     94% 0.00 in 0 W/m2
03:00 55.8 °F 54.1 °F 29.82 in Calm     94% 0.00 in 0 W/m2
03:06 55.7 °F 53.7 °F 29.82 in Calm     93% 0.00 in 0 W/m2
03:12 55.7 °F 53.7 °F 29.82 in Calm     93% 0.00 in 0 W/m2
03:18 55.7 °F 53.7 °F 29.82 in Calm     93% 0.00 in 0 W/m2
03:24 55.7 °F 54.0 °F 29.82 in Calm     94% 0.00 in 0 W/m2
03:30 55.7 °F 54.0 °F 29.83 in Calm     94% 0.00 in 0 W/m2
03:36 55.7 °F 54.0 °F 29.83 in Calm     94% 0.00 in 0 W/m2
03:42 55.7 °F 54.0 °F 29.83 in Calm     94% 0.00 in 0 W/m2
03:48 55.7 °F 54.0 °F 29.83 in Calm     94% 0.00 in 0 W/m2
03:54 55.6 °F 53.9 °F 29.83 in Calm     94% 0.00 in 0 W/m2
04:00 55.6 °F 53.9 °F 29.83 in Calm     94% 0.00 in 0 W/m2
04:06 55.6 °F 53.9 °F 29.83 in Calm     94% 0.00 in 0 W/m2
04:12 55.6 °F 53.9 °F 29.83 in Calm     94% 0.00 in 0 W/m2
04:18 55.6 °F 53.9 °F 29.83 in Calm     94% 0.00 in 0 W/m2
04:24 55.6 °F 53.9 °F 29.83 in Calm     94% 0.00 in 0 W/m2
04:36 55.6 °F 53.9 °F 29.83 in Calm     94% 0.00 in 0 W/m2
04:42 55.6 °F 53.9 °F 29.83 in Calm     94% 0.00 in 0 W/m2
04:48 55.5 °F 53.8 °F 29.83 in Calm     94% 0.00 in 0 W/m2
04:54 55.6 °F 53.9 °F 29.83 in Calm     94% 0.00 in 0 W/m2
05:00 55.5 °F 53.8 °F 29.83 in Calm     94% 0.00 in 0 W/m2
05:06 55.5 °F 53.8 °F 29.83 in Calm     94% 0.00 in 0 W/m2
05:12 55.4 °F 53.7 °F 29.83 in Calm     94% 0.00 in 0 W/m2
05:18 55.4 °F 53.7 °F 29.83 in Calm     94% 0.00 in 0 W/m2
05:26 55.3 °F 53.6 °F 29.83 in Calm     94% 0.00 in 0 W/m2
05:32 55.3 °F 53.6 °F 29.83 in Calm     94% 0.00 in 0 W/m2
05:38 55.3 °F 53.6 °F 29.83 in Calm     94% 0.00 in 0 W/m2
05:44 55.3 °F 53.6 °F 29.83 in Calm     94% 0.00 in 0 W/m2
05:50 55.3 °F 53.6 °F 29.83 in Calm     94% 0.00 in 0 W/m2
05:56 55.2 °F 53.5 °F 29.83 in Calm     94% 0.00 in 5 W/m2
06:02 55.2 °F 53.5 °F 29.84 in Calm     94% 0.00 in 5 W/m2
06:08 55.2 °F 53.5 °F 29.84 in Calm     94% 0.00 in 5 W/m2
06:14 55.2 °F 53.5 °F 29.84 in Calm     94% 0.00 in 9 W/m2
06:20 55.3 °F 53.6 °F 29.84 in Calm     94% 0.00 in 14 W/m2
06:26 55.3 °F 53.6 °F 29.84 in Calm     94% 0.00 in 11 W/m2
06:32 55.3 °F 53.6 °F 29.84 in Calm     94% 0.00 in 14 W/m2
06:38 55.3 °F 53.6 °F 29.85 in Calm     94% 0.00 in 19 W/m2
06:44 55.3 °F 53.6 °F 29.85 in Calm     94% 0.00 in 21 W/m2
06:50 55.3 °F 53.6 °F 29.85 in Calm     94% 0.00 in 28 W/m2
06:56 55.3 °F 53.6 °F 29.85 in Calm     94% 0.00 in 30 W/m2
07:02 55.3 °F 53.6 °F 29.85 in Calm     94% 0.00 in 33 W/m2
07:08 55.3 °F 53.6 °F 29.85 in Calm     94% 0.00 in 54 W/m2
07:14 55.4 °F 53.7 °F 29.85 in Calm     94% 0.00 in 69 W/m2
07:20 55.5 °F 53.8 °F 29.85 in Calm     94% 0.00 in 81 W/m2
07:26 55.7 °F 54.0 °F 29.85 in Calm     94% 0.00 in 86 W/m2
07:32 55.8 °F 54.1 °F 29.85 in Calm     94% 0.00 in 95 W/m2
07:38 55.9 °F 54.2 °F 29.85 in Calm     94% 0.00 in 100 W/m2
07:44 56.1 °F 54.4 °F 29.85 in Calm     94% 0.00 in 88 W/m2
07:50 56.1 °F 54.4 °F 29.86 in Calm     94% 0.00 in 65 W/m2
07:56 56.2 °F 54.5 °F 29.86 in Calm     94% 0.00 in 65 W/m2
08:02 56.2 °F 54.5 °F 29.86 in Calm     94% 0.17 in 65 W/m2
08:08 56.3 °F 54.6 °F 29.86 in Calm     94% 0.10 in 60 W/m2
08:14 56.3 °F 54.6 °F 29.86 in Calm     94% 0.05 in 69 W/m2
08:20 56.4 °F 54.7 °F 29.86 in Calm     94% 0.00 in 102 W/m2
08:26 56.6 °F 54.9 °F 29.86 in Calm     94% 0.00 in 116 W/m2
08:32 56.6 °F 54.9 °F 29.86 in Calm     94% 0.00 in 72 W/m2
08:38 56.6 °F 54.9 °F 29.86 in Calm     94% 0.00 in 77 W/m2
08:44 56.5 °F 54.8 °F 29.86 in Calm     94% 0.00 in 109 W/m2
08:50 56.6 °F 54.9 °F 29.86 in Calm     94% 0.00 in 148 W/m2
08:56 56.6 °F 54.9 °F 29.86 in Calm     94% 0.00 in 171 W/m2
09:02 57.0 °F 55.3 °F 29.86 in Calm     94% 0.00 in 167 W/m2
09:08 56.9 °F 55.2 °F 29.86 in Calm     94% 0.00 in 155 W/m2
09:14 57.0 °F 55.3 °F 29.86 in Calm     94% 0.00 in 139 W/m2
09:20 57.1 °F 55.4 °F 29.86 in Calm     94% 0.00 in 158 W/m2
09:26 57.3 °F 55.6 °F 29.86 in Calm     94% 0.00 in 123 W/m2
09:32 57.5 °F 55.8 °F 29.86 in Calm     94% 0.00 in 83 W/m2
09:38 57.5 °F 55.5 °F 29.86 in Calm   1.0 mph 93% 0.00 in 76 W/m2
09:44 57.2 °F 55.2 °F 29.86 in Calm     93% 0.00 in 86 W/m2
09:50 57.2 °F 55.2 °F 29.86 in Calm     93% 0.00 in 97 W/m2
09:56 57.0 °F 55.0 °F 29.86 in NW 1.0 mph 3.0 mph 93% 0.00 in 123 W/m2
10:02 57.0 °F 55.0 °F 29.86 in NW 1.0 mph 1.0 mph 93% 0.00 in 123 W/m2
10:08 56.8 °F 54.8 °F 29.86 in NE 1.0 mph 3.0 mph 93% 0.00 in 151 W/m2
10:14 57.1 °F 55.1 °F 29.86 in Calm   1.0 mph 93% 0.00 in 120 W/m2
10:20 57.1 °F 54.8 °F 29.86 in NE 1.0 mph 2.0 mph 92% 0.00 in 90 W/m2
10:26 56.9 °F 54.6 °F 29.86 in NE 2.0 mph 3.0 mph 92% 0.00 in 104 W/m2
10:32 57.0 °F 54.7 °F 29.87 in NE 1.0 mph 2.0 mph 92% 0.00 in 139 W/m2
10:40 57.1 °F 54.8 °F 29.87 in NE 1.0 mph 1.0 mph 92% 0.00 in 216 W/m2
10:46 57.1 °F 54.8 °F 29.87 in NE 1.0 mph 1.0 mph 92% 0.00 in 274 W/m2
10:52 57.8 °F 55.5 °F 29.87 in ESE 1.0 mph 2.0 mph 92% 0.00 in 279 W/m2
10:58 57.9 °F 55.6 °F 29.87 in ESE 1.0 mph 2.0 mph 92% 0.00 in 334 W/m2
11:04 58.3 °F 56.0 °F 29.87 in Calm   1.0 mph 92% 0.00 in 330 W/m2
11:10 58.5 °F 56.2 °F 29.87 in Calm   3.0 mph 92% 0.00 in 383 W/m2
11:16 58.7 °F 56.1 °F 29.87 in ESE 1.0 mph 3.0 mph 91% 0.00 in 438 W/m2
11:22 59.0 °F 56.1 °F 29.87 in ESE 1.0 mph 3.0 mph 90% 0.00 in 585 W/m2
11:28 59.4 °F 56.2 °F 29.87 in ESE 1.0 mph 3.0 mph 89% 0.00 in 496 W/m2
11:34 59.8 °F 56.2 °F 29.87 in ESE 1.0 mph 1.0 mph 88% 0.00 in 536 W/m2
11:40 60.1 °F 56.5 °F 29.87 in SE 1.0 mph 1.0 mph 88% 0.00 in 504 W/m2
11:46 60.4 °F 56.8 °F 29.87 in SSE 1.0 mph 4.0 mph 88% 0.00 in 378 W/m2
11:52 60.1 °F 55.9 °F 29.87 in SSE 1.0 mph 2.0 mph 86% 0.00 in 309 W/m2
11:58 60.5 °F 56.6 °F 29.87 in Calm   2.0 mph 87% 0.00 in 255 W/m2
12:04 60.8 °F 56.6 °F 29.87 in SSE 1.0 mph 3.0 mph 86% 0.00 in 299 W/m2
12:10 60.8 °F 56.6 °F 29.87 in SSE 1.0 mph 1.0 mph 86% 0.00 in 396 W/m2
12:16 61.0 °F 56.5 °F 29.87 in South 1.0 mph 1.0 mph 85% 0.00 in 311 W/m2
12:22 60.9 °F 56.0 °F 29.87 in South 1.0 mph 4.0 mph 84% 0.00 in 265 W/m2
12:28 60.8 °F 56.3 °F 29.87 in South 1.0 mph 4.0 mph 85% 0.00 in 278 W/m2
12:34 61.1 °F 56.6 °F 29.87 in South 1.0 mph 1.0 mph 85% 0.00 in 362 W/m2
12:40 61.6 °F 57.0 °F 29.87 in Calm   2.0 mph 85% 0.00 in 608 W/m2
12:46 61.6 °F 56.0 °F 29.86 in South 1.0 mph 2.0 mph 82% 0.00 in 703 W/m2
13:02 63.2 °F 56.9 °F 29.86 in NW 1.0 mph 1.0 mph 80% 0.00 in 308 W/m2
13:08 63.1 °F 57.2 °F 29.86 in SSW 2.0 mph 3.0 mph 81% 0.00 in 383 W/m2
13:13 63.7 °F 57.1 °F 29.86 in SSW 1.0 mph 3.0 mph 79% 0.00 in 396 W/m2
13:19 63.9 °F 58.6 °F 29.86 in SW 1.0 mph 2.0 mph 83% 0.00 in 591 W/m2
13:25 64.2 °F 58.2 °F 29.86 in SW 2.0 mph 4.0 mph 81% 0.00 in 445 W/m2
13:32 64.4 °F 57.7 °F 29.86 in West 1.0 mph 2.0 mph 79% 0.00 in 612 W/m2
13:38 63.9 °F 56.9 °F 29.86 in SSW 2.0 mph 3.0 mph 78% 0.00 in 483 W/m2
13:43 64.4 °F 58.4 °F 29.86 in SSW 2.0 mph 7.0 mph 81% 0.00 in 617 W/m2
13:49 64.7 °F 58.7 °F 29.86 in SSW 1.0 mph 2.0 mph 81% 0.00 in 671 W/m2
13:55 65.5 °F 57.4 °F 29.86 in WSW 1.0 mph 6.0 mph 75% 0.00 in 763 W/m2
14:02 66.3 °F 59.2 °F 29.86 in SW 1.0 mph 2.0 mph 78% 0.00 in 984 W/m2
14:08 66.7 °F 58.1 °F 29.86 in SW 2.0 mph 3.0 mph 74% 0.00 in 1055 W/m2
14:13 66.6 °F 56.1 °F 29.85 in NW 2.0 mph 2.0 mph 69% 0.00 in 930 W/m2
14:19 66.5 °F 56.8 °F 29.85 in South 1.0 mph 1.0 mph 71% 0.00 in 323 W/m2
14:25 66.1 °F 57.2 °F 29.85 in SW 1.0 mph 3.0 mph 73% 0.00 in 325 W/m2
14:32 65.7 °F 57.2 °F 29.85 in WSW 2.0 mph 2.0 mph 74% 0.00 in 262 W/m2
14:38 65.9 °F 57.7 °F 29.85 in SW 1.0 mph 3.0 mph 75% 0.00 in 835 W/m2
14:43 66.6 °F 59.2 °F 29.86 in West 2.0 mph 4.0 mph 77% 0.00 in 960 W/m2
14:49 66.7 °F 57.4 °F 29.85 in West 2.0 mph 2.0 mph 72% 0.00 in 909 W/m2
14:55 66.4 °F 57.5 °F 29.85 in West 1.0 mph 2.0 mph 73% 0.00 in 165 W/m2
15:02 65.8 °F 56.5 °F 29.85 in NNW 2.0 mph 2.0 mph 72% 0.00 in 195 W/m2
15:08 65.5 °F 57.0 °F 29.85 in NW 2.0 mph 2.0 mph 74% 0.00 in 227 W/m2
15:13 65.5 °F 57.7 °F 29.85 in NNW 1.0 mph 4.0 mph 76% 0.00 in 230 W/m2
15:19 65.6 °F 57.1 °F 29.85 in NNW 1.0 mph 4.0 mph 74% 0.00 in 225 W/m2
15:25 65.7 °F 56.8 °F 29.85 in NNW 1.0 mph 4.0 mph 73% 0.00 in 223 W/m2
15:32 65.8 °F 57.3 °F 29.84 in NNW 1.0 mph 1.0 mph 74% 0.00 in 156 W/m2
15:38 65.7 °F 57.2 °F 29.84 in NNE 1.0 mph 4.0 mph 74% 0.00 in 158 W/m2
15:43 65.6 °F 56.7 °F 29.84 in WSW 2.0 mph 2.0 mph 73% 0.00 in 192 W/m2
15:49 65.8 °F 56.9 °F 29.84 in SW 2.0 mph 4.0 mph 73% 0.00 in 274 W/m2
15:55 66.5 °F 56.8 °F 29.84 in SW 3.0 mph 5.0 mph 71% 0.00 in 557 W/m2
16:02 68.2 °F 58.0 °F 29.83 in WSW 1.0 mph 2.0 mph 70% 0.00 in 802 W/m2
16:08 68.5 °F 56.7 °F 29.83 in SW 2.0 mph 3.0 mph 66% 0.00 in 441 W/m2
16:13 67.6 °F 56.2 °F 29.84 in SW 2.0 mph 3.0 mph 67% 0.00 in 237 W/m2
16:19 67.5 °F 57.0 °F 29.83 in SW 1.0 mph 2.0 mph 69% 0.00 in 176 W/m2
16:25 67.4 °F 56.1 °F 29.83 in West 1.0 mph 2.0 mph 67% 0.00 in 123 W/m2
16:32 66.7 °F 56.2 °F 29.84 in WSW 2.0 mph 2.0 mph 69% 0.00 in 91 W/m2
16:38 66.1 °F 56.4 °F 29.84 in WSW 2.0 mph 6.0 mph 71% 0.00 in 97 W/m2
16:43 65.7 °F 56.8 °F 29.84 in SW 3.0 mph 5.0 mph 73% 0.00 in 81 W/m2
16:49 65.4 °F 56.9 °F 29.84 in SW 3.0 mph 3.0 mph 74% 0.00 in 86 W/m2
16:55 65.1 °F 57.0 °F 29.84 in SSW 2.0 mph 4.0 mph 75% 0.00 in 98 W/m2
17:02 65.0 °F 56.9 °F 29.84 in SSW 2.0 mph 2.0 mph 75% 0.00 in 86 W/m2
17:08 65.0 °F 56.9 °F 29.84 in SW 2.0 mph 3.0 mph 75% 0.00 in 74 W/m2
17:13 64.8 °F 57.1 °F 29.84 in SW 1.0 mph 3.0 mph 76% 0.00 in 65 W/m2
17:19 64.7 °F 57.0 °F 29.84 in SW 1.0 mph 2.0 mph 76% 0.00 in 58 W/m2
17:25 64.6 °F 56.9 °F 29.84 in SSW 1.0 mph 3.0 mph 76% 0.00 in 56 W/m2
17:31 64.5 °F 56.8 °F 29.84 in WSW 2.0 mph 4.0 mph 76% 0.00 in 44 W/m2
17:38 64.4 °F 56.7 °F 29.84 in SW 2.0 mph 4.0 mph 76% 0.00 in 37 W/m2
17:43 64.4 °F 56.7 °F 29.84 in WSW 1.0 mph 3.0 mph 76% 0.00 in 33 W/m2
17:49 64.3 °F 56.6 °F 29.84 in WSW 1.0 mph 2.0 mph 76% 0.00 in 28 W/m2
17:55 64.3 °F 56.6 °F 29.84 in WSW 1.0 mph 2.0 mph 76% 0.00 in 23 W/m2
18:02 64.2 °F 56.1 °F 29.84 in WSW 1.0 mph 2.0 mph 75% 0.00 in 18 W/m2
18:08 64.2 °F 56.1 °F 29.84 in West 2.0 mph 3.0 mph 75% 0.00 in 14 W/m2
18:13 64.2 °F 55.7 °F 29.85 in WSW 2.0 mph 4.0 mph 74% 0.00 in 12 W/m2
18:19 64.0 °F 55.9 °F 29.85 in WSW 2.0 mph 2.0 mph 75% 0.00 in 11 W/m2
18:25 63.9 °F 56.2 °F 29.85 in WSW 1.0 mph 2.0 mph 76% 0.00 in 11 W/m2
18:32 63.6 °F 55.9 °F 29.86 in Calm     76% 0.00 in 11 W/m2
18:38 63.4 °F 56.1 °F 29.86 in Calm     77% 0.00 in 12 W/m2
18:43 63.3 °F 56.0 °F 29.86 in Calm     77% 0.00 in 14 W/m2
18:49 63.2 °F 56.2 °F 29.86 in Calm   1.0 mph 78% 0.00 in 18 W/m2
18:55 63.0 °F 56.0 °F 29.86 in Calm   1.0 mph 78% 0.00 in 19 W/m2
19:02 62.9 °F 55.9 °F 29.86 in Calm     78% 0.00 in 21 W/m2
19:08 62.8 °F 55.5 °F 29.86 in Calm     77% 0.00 in 25 W/m2
19:13 62.8 °F 55.1 °F 29.86 in Calm   2.0 mph 76% 0.00 in 25 W/m2
19:19 62.8 °F 55.1 °F 29.86 in Calm     76% 0.00 in 19 W/m2
19:25 62.8 °F 55.1 °F 29.86 in Calm     76% 0.00 in 16 W/m2
19:32 62.7 °F 54.7 °F 29.86 in Calm     75% 0.00 in 14 W/m2
19:38 62.6 °F 54.6 °F 29.87 in Calm     75% 0.00 in 12 W/m2
19:43 62.5 °F 54.5 °F 29.87 in Calm     75% 0.00 in 12 W/m2
19:49 62.5 °F 55.2 °F 29.87 in Calm     77% 0.00 in 11 W/m2
19:55 62.4 °F 55.1 °F 29.87 in Calm     77% 0.00 in 11 W/m2
20:02 62.2 °F 55.3 °F 29.87 in Calm     78% 0.00 in 11 W/m2
20:08 62.1 °F 55.2 °F 29.87 in Calm     78% 0.00 in 9 W/m2
20:13 62.0 °F 55.4 °F 29.87 in Calm     79% 0.00 in 11 W/m2
20:19 61.9 °F 55.3 °F 29.88 in Calm     79% 0.00 in 9 W/m2
20:25 61.8 °F 55.6 °F 29.88 in Calm     80% 0.00 in 5 W/m2
20:31 61.7 °F 55.1 °F 29.88 in Calm     79% 0.00 in 0 W/m2
20:38 61.6 °F 55.0 °F 29.88 in Calm     79% 0.00 in 0 W/m2
20:43 61.6 °F 54.7 °F 29.88 in Calm     78% 0.00 in 0 W/m2
20:49 61.5 °F 54.6 °F 29.88 in Calm     78% 0.00 in 0 W/m2
20:55 61.5 °F 54.6 °F 29.88 in Calm     78% 0.00 in 0 W/m2
21:02 61.4 °F 54.5 °F 29.89 in Calm     78% 0.00 in 0 W/m2
21:08 61.4 °F 54.8 °F 29.88 in Calm     79% 0.00 in 0 W/m2
21:13 61.2 °F 55.3 °F 29.88 in Calm     81% 0.00 in 0 W/m2
21:15 61.1 °F 55.2 °F 29.88 in Calm     81% 0.00 in 0 W/m2
21:22 60.7 °F 55.5 °F 29.88 in Calm     83% 0.00 in 0 W/m2
21:28 60.3 °F 55.1 °F 29.88 in Calm     83% 0.00 in 0 W/m2
21:33 59.8 °F 54.6 °F 29.88 in Calm     83% 0.00 in 0 W/m2
21:39 59.5 °F 54.7 °F 29.88 in Calm     84% 0.00 in 0 W/m2
21:45 58.9 °F 54.4 °F 29.89 in Calm     85% 0.00 in 0 W/m2
21:52 58.5 °F 54.0 °F 29.89 in Calm     85% 0.00 in 0 W/m2
21:58 58.2 °F 53.7 °F 29.89 in Calm     85% 0.00 in 0 W/m2
22:03 57.9 °F 53.7 °F 29.89 in Calm     86% 0.00 in 0 W/m2
22:09 57.5 °F 53.3 °F 29.88 in Calm     86% 0.00 in 0 W/m2
22:15 57.3 °F 53.5 °F 29.89 in Calm     87% 0.00 in 0 W/m2
22:22 56.8 °F 53.0 °F 29.88 in Calm     87% 0.00 in 0 W/m2
22:28 56.3 °F 52.8 °F 29.88 in Calm     88% 0.00 in 0 W/m2
22:33 55.9 °F 52.7 °F 29.87 in Calm     89% 0.00 in 0 W/m2
22:39 55.7 °F 52.5 °F 29.87 in Calm     89% 0.00 in 0 W/m2
22:45 55.4 °F 52.2 °F 29.87 in Calm     89% 0.00 in 0 W/m2
22:52 55.1 °F 51.9 °F 29.87 in Calm     89% 0.00 in 0 W/m2
22:58 54.9 °F 52.0 °F 29.87 in Calm     90% 0.00 in 0 W/m2
23:05 54.7 °F 51.8 °F 29.87 in Calm     90% 0.00 in 0 W/m2
23:12 54.4 °F 51.5 °F 29.87 in Calm     90% 0.00 in 0 W/m2
23:18 54.2 °F 51.3 °F 29.87 in Calm     90% 0.00 in 0 W/m2
23:23 53.9 °F 51.0 °F 29.87 in Calm     90% 0.00 in 0 W/m2
23:29 53.7 °F 51.1 °F 29.87 in Calm     91% 0.00 in 0 W/m2
23:35 53.7 °F 51.1 °F 29.87 in Calm     91% 0.00 in 0 W/m2
23:42 53.5 °F 50.9 °F 29.87 in Calm     91% 0.00 in 0 W/m2
23:48 53.2 °F 50.6 °F 29.87 in Calm     91% 0.00 in 0 W/m2
23:53 53.1 °F 50.5 °F 29.87 in Calm     91% 0.00 in 0 W/m2
23:59 53.0 °F 50.4 °F 29.87 in Calm     91% 0.00 in 0 W/m2
Country Meadow, Clay, NY, USA
Compliments of Weather Underground - 2 mb